Time;durP1;ratioP1;P1;durP2;ratioP2;P2;SDS_P1;SDS_P2;PMS_P1;PMS_P2;Temp;Humidity;BMP_temperature;BMP_pressure;BME280_temperature;BME280_humidity;BME280_pressure;Samples;Min_cycle;Max_cycle;Signal;HPM_P1;HPM_P2
2021/05/02 00:01:40;;;;;;;39.22;28.58;;;;;;;;;;5046191;28;20017;-55
2021/05/02 00:04:06;;;;;;;36.08;27.35;;;;;;;;;;5032527;28;20017;-53
2021/05/02 00:06:31;;;;;;;39.75;28.17;;;;;;;;;;5032244;28;20143;-53
2021/05/02 00:08:57;;;;;;;36.58;26.60;;;;;;;;;;5031888;28;20154;-51
2021/05/02 00:11:22;;;;;;;34.58;25.60;;;;;;;;;;5036315;28;20017;-52
2021/05/02 00:13:48;;;;;;;35.40;26.58;;;;;;;;;;5049406;28;20025;-53
2021/05/02 00:16:13;;;;;;;37.58;26.15;;;;;;;;;;5042362;28;20041;-53
2021/05/02 00:18:38;;;;;;;36.60;26.02;;;;;;;;;;5033229;28;20477;-55
2021/05/02 00:21:08;;;;;;;36.45;26.35;;;;;;;;;;5037059;28;20021;-53
2021/05/02 00:23:35;;;;;;;32.53;24.33;;;;;;;;;;5036138;28;20501;-51
2021/05/02 00:26:01;;;;;;;37.00;26.27;;;;;;;;;;5035962;28;20072;-55
2021/05/02 00:28:26;;;;;;;35.83;24.50;;;;;;;;;;5032875;28;20014;-54
2021/05/02 00:30:52;;;;;;;35.45;25.63;;;;;;;;;;5035803;28;20105;-52
2021/05/02 00:33:18;;;;;;;37.22;25.77;;;;;;;;;;5035835;28;20026;-52
2021/05/02 00:35:43;;;;;;;36.20;25.90;;;;;;;;;;5030351;28;20029;-54
2021/05/02 00:38:09;;;;;;;36.83;25.05;;;;;;;;;;5042738;28;20075;-51
2021/05/02 00:40:35;;;;;;;39.88;26.77;;;;;;;;;;5035449;28;20385;-52
2021/05/02 00:43:05;;;;;;;40.78;28.05;;;;;;;;;;5035193;28;20535;-54
2021/05/02 00:45:49;;;;;;;36.60;24.67;;;;;;;;;;5035147;28;20028;-54
2021/05/02 00:48:42;;;;;;;38.95;25.42;;;;;;;;;;5032073;28;20491;-50
2021/05/02 00:51:10;;;;;;;34.22;24.48;;;;;;;;;;5035339;28;20030;-51
2021/05/02 00:53:48;;;;;;;36.05;25.63;;;;;;;;;;5035827;28;20092;-51
2021/05/02 00:56:20;;;;;;;35.47;24.48;;;;;;;;;;5023575;28;20384;-52
2021/05/02 00:58:58;;;;;;;37.88;24.48;;;;;;;;;;5025262;28;20017;-53
2021/05/02 01:01:24;;;;;;;34.65;24.38;;;;;;;;;;5039755;28;20063;-54
2021/05/02 01:03:50;;;;;;;32.67;23.13;;;;;;;;;;5034671;28;20057;-52
2021/05/02 01:06:20;;;;;;;34.88;23.77;;;;;;;;;;5034834;28;20040;-54
2021/05/02 01:08:46;;;;;;;29.75;20.85;;;;;;;;;;5032141;28;20017;-56
2021/05/02 01:11:12;;;;;;;29.38;21.63;;;;;;;;;;5034221;28;20449;-56
2021/05/02 01:13:40;;;;;;;29.80;19.98;;;;;;;;;;5034540;28;20021;-50
2021/05/02 01:16:09;;;;;;;30.13;21.73;;;;;;;;;;5034667;28;20052;-54
2021/05/02 01:18:36;;;;;;;29.95;20.00;;;;;;;;;;5030165;28;20022;-54
2021/05/02 01:21:01;;;;;;;26.45;20.08;;;;;;;;;;5039781;28;20033;-55
2021/05/02 01:23:27;;;;;;;26.58;19.77;;;;;;;;;;5054647;28;20096;-52
2021/05/02 01:25:54;;;;;;;26.88;19.52;;;;;;;;;;5046400;28;20033;-51
2021/05/02 01:28:20;;;;;;;24.88;18.45;;;;;;;;;;5042338;28;20021;-52
2021/05/02 01:30:45;;;;;;;24.30;17.10;;;;;;;;;;5034346;28;20052;-54
2021/05/02 01:33:11;;;;;;;23.17;17.52;;;;;;;;;;5036049;28;20061;-52
2021/05/02 01:35:36;;;;;;;21.60;16.85;;;;;;;;;;5034396;28;20026;-55
2021/05/02 01:38:02;;;;;;;22.67;16.83;;;;;;;;;;5040407;28;20040;-51
2021/05/02 01:40:27;;;;;;;21.70;16.88;;;;;;;;;;5033419;28;20029;-52
2021/05/02 01:42:52;;;;;;;25.55;19.48;;;;;;;;;;5033838;28;20388;-52
2021/05/02 01:45:17;;;;;;;27.65;14.20;;;;;;;;;;5035390;28;20108;-53
2021/05/02 01:47:45;;;;;;;24.02;17.45;;;;;;;;;;5031050;28;20025;-50
2021/05/02 01:50:11;;;;;;;26.02;17.77;;;;;;;;;;5033945;28;20022;-53
2021/05/02 01:52:42;;;;;;;27.13;19.08;;;;;;;;;;5033838;28;20056;-54
2021/05/02 01:55:08;;;;;;;25.75;19.35;;;;;;;;;;5034074;28;20028;-50
2021/05/02 01:57:33;;;;;;;23.23;17.10;;;;;;;;;;5031227;28;20022;-54
2021/05/02 02:00:02;;;;;;;21.67;16.85;;;;;;;;;;5034386;28;20366;-53
2021/05/02 02:02:29;;;;;;;23.25;17.50;;;;;;;;;;5043004;28;20030;-56
2021/05/02 02:04:56;;;;;;;23.27;17.25;;;;;;;;;;5033618;28;20013;-49
2021/05/02 02:07:21;;;;;;;23.95;16.90;;;;;;;;;;5047850;28;20048;-53
2021/05/02 02:09:46;;;;;;;21.77;16.58;;;;;;;;;;5038904;28;20025;-50
2021/05/02 02:12:12;;;;;;;18.85;15.45;;;;;;;;;;5033310;28;20112;-51
2021/05/02 02:14:38;;;;;;;19.95;15.68;;;;;;;;;;5034080;28;20017;-52
2021/05/02 02:17:05;;;;;;;19.40;14.68;;;;;;;;;;5031355;28;20586;-55
2021/05/02 02:19:30;;;;;;;20.63;15.82;;;;;;;;;;5041583;28;20044;-49
2021/05/02 02:21:57;;;;;;;21.13;15.93;;;;;;;;;;5035500;28;20030;-53
2021/05/02 02:24:41;;;;;;;19.92;15.43;;;;;;;;;;5033759;28;20377;-52
2021/05/02 02:27:07;;;;;;;19.85;15.60;;;;;;;;;;5030879;28;20091;-52
2021/05/02 02:29:32;;;;;;;17.38;13.50;;;;;;;;;;5033734;28;20025;-53
2021/05/02 02:32:03;;;;;;;18.27;14.45;;;;;;;;;;5032478;28;20096;-51
2021/05/02 02:34:28;;;;;;;20.10;15.25;;;;;;;;;;5036106;28;20061;-52
2021/05/02 02:36:54;;;;;;;19.58;13.98;;;;;;;;;;5042852;28;20064;-51
2021/05/02 02:39:19;;;;;;;20.77;15.55;;;;;;;;;;5032354;28;20475;-54
2021/05/02 02:41:46;;;;;;;18.25;13.93;;;;;;;;;;5032499;28;20071;-51
2021/05/02 02:44:11;;;;;;;17.73;13.80;;;;;;;;;;5033388;28;20080;-53
2021/05/02 02:46:39;;;;;;;20.23;14.88;;;;;;;;;;5046669;28;20025;-55
2021/05/02 02:49:05;;;;;;;18.98;15.10;;;;;;;;;;5030096;28;20104;-54
2021/05/02 02:51:30;;;;;;;19.08;14.63;;;;;;;;;;5033052;28;20100;-54
2021/05/02 02:53:56;;;;;;;21.52;16.48;;;;;;;;;;5033166;28;20057;-52
2021/05/02 02:56:22;;;;;;;20.58;15.05;;;;;;;;;;5033115;28;20025;-52
2021/05/02 02:59:01;;;;;;;21.10;15.45;;;;;;;;;;5029955;28;20526;-56
2021/05/02 03:01:26;;;;;;;21.52;14.88;;;;;;;;;;5027051;28;20500;-54
2021/05/02 03:03:55;;;;;;;22.00;15.68;;;;;;;;;;5033048;28;20017;-55
2021/05/02 03:06:24;;;;;;;21.77;15.70;;;;;;;;;;5031631;28;20544;-54
2021/05/02 03:08:52;;;;;;;23.35;17.05;;;;;;;;;;5028588;28;20150;-55
2021/05/02 03:11:17;;;;;;;21.38;16.40;;;;;;;;;;5031671;28;20060;-53
2021/05/02 03:13:44;;;;;;;23.33;16.90;;;;;;;;;;5032929;28;20049;-54
2021/05/02 03:16:09;;;;;;;21.13;16.65;;;;;;;;;;5046342;28;20040;-55
2021/05/02 03:18:38;;;;;;;22.77;17.15;;;;;;;;;;5032855;28;20576;-55
2021/05/02 03:21:06;;;;;;;20.08;14.93;;;;;;;;;;5013231;28;20041;-52
2021/05/02 03:23:32;;;;;;;18.67;13.93;;;;;;;;;;5038244;28;20372;-55
2021/05/02 03:26:00;;;;;;;19.58;15.07;;;;;;;;;;5043692;28;20018;-53
2021/05/02 03:28:29;;;;;;;23.67;16.77;;;;;;;;;;5029574;28;20029;-54
2021/05/02 03:30:54;;;;;;;21.65;16.05;;;;;;;;;;5031861;28;20096;-53
2021/05/02 03:33:22;;;;;;;21.45;15.70;;;;;;;;;;5032320;28;20548;-54
2021/05/02 03:35:48;;;;;;;23.58;17.55;;;;;;;;;;5032078;28;20025;-52
2021/05/02 03:38:28;;;;;;;22.08;16.63;;;;;;;;;;5029568;28;20025;-52
2021/05/02 03:40:54;;;;;;;22.60;16.30;;;;;;;;;;5032334;28;20109;-52
2021/05/02 03:43:19;;;;;;;22.92;16.73;;;;;;;;;;5032000;28;20562;-55
2021/05/02 03:45:44;;;;;;;23.83;16.95;;;;;;;;;;5031930;28;20025;-52
2021/05/02 03:48:10;;;;;;;23.48;16.80;;;;;;;;;;5029676;28;20025;-54
2021/05/02 03:50:35;;;;;;;27.67;17.17;;;;;;;;;;5032108;28;20075;-55
2021/05/02 03:53:02;;;;;;;27.60;20.70;;;;;;;;;;5031569;28;20030;-55
2021/05/02 03:55:27;;;;;;;24.08;17.45;;;;;;;;;;5032311;28;20575;-54
2021/05/02 03:57:52;;;;;;;20.77;16.35;;;;;;;;;;5029026;28;20100;-55
2021/05/02 04:00:18;;;;;;;19.60;14.55;;;;;;;;;;5048960;28;20078;-54
2021/05/02 04:02:43;;;;;;;19.02;14.80;;;;;;;;;;5038849;28;20489;-54
2021/05/02 04:05:08;;;;;;;18.95;14.15;;;;;;;;;;5032354;28;20040;-55
2021/05/02 04:07:33;;;;;;;17.20;13.98;;;;;;;;;;5029204;28;20045;-55
2021/05/02 04:09:59;;;;;;;16.17;13.18;;;;;;;;;;5030315;28;20014;-54
2021/05/02 04:12:24;;;;;;;17.83;14.23;;;;;;;;;;5042300;28;20041;-54
2021/05/02 04:14:49;;;;;;;17.98;15.00;;;;;;;;;;5032108;28;20463;-54
2021/05/02 04:17:15;;;;;;;21.27;15.68;;;;;;;;;;5049232;28;20528;-54
2021/05/02 04:19:41;;;;;;;22.00;16.88;;;;;;;;;;5032492;28;20020;-56
2021/05/02 04:22:07;;;;;;;20.25;15.38;;;;;;;;;;5032149;28;20026;-53
2021/05/02 04:24:33;;;;;;;20.90;15.75;;;;;;;;;;5031480;28;20075;-53
2021/05/02 04:26:59;;;;;;;20.60;15.00;;;;;;;;;;5028959;28;20541;-55
2021/05/02 04:29:26;;;;;;;19.63;15.15;;;;;;;;;;5031881;28;20018;-55
2021/05/02 04:31:51;;;;;;;18.70;15.15;;;;;;;;;;5031292;28;20377;-53
2021/05/02 04:34:16;;;;;;;17.73;13.88;;;;;;;;;;5031759;28;20030;-52
2021/05/02 04:36:42;;;;;;;18.67;14.93;;;;;;;;;;5031672;28;20018;-50
2021/05/02 04:39:07;;;;;;;19.13;15.60;;;;;;;;;;5029191;28;20026;-51
2021/05/02 04:41:32;;;;;;;19.00;15.10;;;;;;;;;;5031428;28;20014;-51
2021/05/02 04:43:58;;;;;;;20.25;15.30;;;;;;;;;;5039813;28;20448;-55
2021/05/02 04:46:23;;;;;;;19.45;15.48;;;;;;;;;;5031517;28;20056;-53
2021/05/02 04:48:48;;;;;;;19.83;15.93;;;;;;;;;;5028839;28;20424;-55
2021/05/02 04:51:14;;;;;;;21.35;16.20;;;;;;;;;;5031615;28;20029;-52
2021/05/02 04:53:41;;;;;;;20.88;15.98;;;;;;;;;;5031264;28;20022;-52
2021/05/02 04:56:06;;;;;;;20.30;16.08;;;;;;;;;;5031864;28;20481;-54
2021/05/02 04:58:31;;;;;;;26.00;18.48;;;;;;;;;;5030051;28;20064;-55
2021/05/02 05:00:57;;;;;;;21.45;15.77;;;;;;;;;;5034768;28;20036;-54
2021/05/02 05:03:22;;;;;;;21.65;16.17;;;;;;;;;;5034776;28;20094;-54
2021/05/02 05:05:47;;;;;;;20.92;16.38;;;;;;;;;;5035022;28;20461;-51
2021/05/02 05:08:13;;;;;;;24.65;18.50;;;;;;;;;;5032414;28;20441;-53
2021/05/02 05:10:38;;;;;;;28.25;19.88;;;;;;;;;;5038546;28;20465;-55
2021/05/02 05:13:03;;;;;;;22.83;16.90;;;;;;;;;;5043870;28;20045;-53
2021/05/02 05:15:28;;;;;;;19.85;14.95;;;;;;;;;;5053809;28;20021;-54
2021/05/02 05:17:54;;;;;;;24.00;18.27;;;;;;;;;;5043312;28;20029;-55
2021/05/02 05:20:19;;;;;;;25.52;18.40;;;;;;;;;;5031272;28;20432;-54
2021/05/02 05:22:45;;;;;;;19.58;15.48;;;;;;;;;;5034096;28;20045;-53
2021/05/02 05:25:10;;;;;;;23.33;18.50;;;;;;;;;;5035062;28;20053;-55
2021/05/02 05:27:36;;;;;;;22.73;17.10;;;;;;;;;;5031853;28;20362;-52
2021/05/02 05:30:01;;;;;;;24.45;17.85;;;;;;;;;;5034294;28;20082;-52
2021/05/02 05:32:26;;;;;;;19.65;15.85;;;;;;;;;;5034500;28;20059;-53
2021/05/02 05:34:52;;;;;;;19.58;15.30;;;;;;;;;;5040623;28;20021;-51
2021/05/02 05:37:17;;;;;;;20.85;15.70;;;;;;;;;;5036065;28;20025;-54
2021/05/02 05:39:42;;;;;;;19.27;15.85;;;;;;;;;;5053836;28;20017;-52
2021/05/02 05:42:07;;;;;;;18.85;14.32;;;;;;;;;;5040703;28;20021;-52
2021/05/02 05:44:32;;;;;;;10.60;7.32;;;;;;;;;;5034691;28;20476;-52
2021/05/02 05:46:58;;;;;;;19.05;14.80;;;;;;;;;;5031934;28;20013;-55
2021/05/02 05:49:23;;;;;;;17.23;13.25;;;;;;;;;;5042559;28;20434;-51
2021/05/02 05:51:52;;;;;;;19.92;15.93;;;;;;;;;;5044848;28;20017;-52
2021/05/02 05:54:17;;;;;;;22.48;16.17;;;;;;;;;;5034193;28;20033;-54
2021/05/02 05:56:42;;;;;;;20.73;15.85;;;;;;;;;;5033672;28;20029;-53
2021/05/02 05:59:07;;;;;;;21.05;15.82;;;;;;;;;;5033327;28;20025;-54
2021/05/02 06:01:32;;;;;;;22.23;15.80;;;;;;;;;;5033569;28;20123;-53
2021/05/02 06:03:58;;;;;;;20.75;16.90;;;;;;;;;;5041522;28;20018;-52
2021/05/02 06:06:24;;;;;;;19.52;15.25;;;;;;;;;;5033055;28;20048;-55
2021/05/02 06:08:49;;;;;;;15.48;11.30;;;;;;;;;;5024875;28;20017;-53
2021/05/02 06:11:14;;;;;;;23.20;16.75;;;;;;;;;;5028467;28;20021;-52
2021/05/02 06:13:39;;;;;;;23.58;17.23;;;;;;;;;;5034123;28;20023;-53
2021/05/02 06:16:05;;;;;;;23.80;18.20;;;;;;;;;;5036611;28;20103;-52
2021/05/02 06:18:30;;;;;;;25.20;18.50;;;;;;;;;;5031194;28;20025;-52
2021/05/02 06:20:57;;;;;;;22.63;17.23;;;;;;;;;;5033349;28;20018;-51
2021/05/02 06:23:22;;;;;;;24.55;18.02;;;;;;;;;;5033522;28;20029;-55
2021/05/02 06:25:47;;;;;;;20.67;16.35;;;;;;;;;;5022260;28;20018;-54
2021/05/02 06:28:13;;;;;;;21.85;16.45;;;;;;;;;;5048860;28;20009;-54
2021/05/02 06:30:38;;;;;;;23.65;18.23;;;;;;;;;;5053357;28;20066;-53
2021/05/02 06:33:03;;;;;;;15.90;11.77;;;;;;;;;;5053350;28;20049;-52
2021/05/02 06:35:29;;;;;;;20.88;16.50;;;;;;;;;;5051549;28;20021;-54
2021/05/02 06:37:54;;;;;;;17.17;13.40;;;;;;;;;;5031017;28;20491;-54
2021/05/02 06:40:19;;;;;;;25.17;18.75;;;;;;;;;;5037224;28;20159;-56
2021/05/02 06:42:45;;;;;;;25.83;18.42;;;;;;;;;;5032703;28;20100;-54
2021/05/02 06:45:11;;;;;;;18.15;13.57;;;;;;;;;;5033670;28;20108;-55
2021/05/02 06:47:36;;;;;;;19.60;15.27;;;;;;;;;;5030793;28;20148;-53
2021/05/02 06:50:02;;;;;;;21.13;16.23;;;;;;;;;;5032370;28;20049;-54
2021/05/02 06:52:27;;;;;;;18.75;14.73;;;;;;;;;;5032729;28;20025;-53
2021/05/02 06:54:54;;;;;;;23.15;17.90;;;;;;;;;;5032437;28;20071;-53
2021/05/02 06:57:19;;;;;;;22.15;18.10;;;;;;;;;;5025023;28;20199;-55
2021/05/02 06:59:44;;;;;;;20.27;14.38;;;;;;;;;;5038341;28;20028;-54
2021/05/02 07:02:10;;;;;;;22.23;17.77;;;;;;;;;;5017699;28;20029;-53
2021/05/02 07:04:35;;;;;;;21.48;17.00;;;;;;;;;;5033192;28;20039;-53
2021/05/02 07:07:01;;;;;;;19.38;15.82;;;;;;;;;;5033664;28;20045;-53
2021/05/02 07:09:26;;;;;;;18.30;14.00;;;;;;;;;;5033014;28;20017;-51
2021/05/02 07:11:52;;;;;;;20.58;16.33;;;;;;;;;;5029404;28;20381;-51
2021/05/02 07:14:17;;;;;;;20.58;16.27;;;;;;;;;;5031056;28;20063;-55
2021/05/02 07:16:42;;;;;;;18.10;15.85;;;;;;;;;;5031594;28;20021;-52
2021/05/02 07:19:08;;;;;;;19.85;16.65;;;;;;;;;;5029608;28;20029;-51
2021/05/02 07:21:33;;;;;;;19.85;16.08;;;;;;;;;;5027665;28;20090;-51
2021/05/02 07:23:58;;;;;;;19.85;16.05;;;;;;;;;;5031970;28;20021;-53
2021/05/02 07:26:23;;;;;;;18.05;15.68;;;;;;;;;;5037381;28;20017;-56
2021/05/02 07:28:51;;;;;;;17.50;15.20;;;;;;;;;;5029890;28;20025;-50
2021/05/02 07:31:17;;;;;;;19.00;15.52;;;;;;;;;;5032201;28;20040;-53
2021/05/02 07:33:42;;;;;;;17.10;15.00;;;;;;;;;;5031769;28;20101;-49
2021/05/02 07:36:08;;;;;;;19.20;15.40;;;;;;;;;;5032185;28;20032;-51
2021/05/02 07:38:34;;;;;;;18.23;14.80;;;;;;;;;;5029436;28;20500;-53
2021/05/02 07:41:00;;;;;;;13.73;10.88;;;;;;;;;;5030996;28;20307;-55
2021/05/02 07:43:25;;;;;;;19.27;15.85;;;;;;;;;;5042292;28;20479;-50
2021/05/02 07:45:51;;;;;;;17.92;14.07;;;;;;;;;;5031334;28;20096;-54
2021/05/02 07:48:16;;;;;;;21.00;17.02;;;;;;;;;;5039791;28;20025;-54
2021/05/02 07:50:41;;;;;;;20.40;16.23;;;;;;;;;;5043054;28;20023;-53
2021/05/02 07:53:07;;;;;;;19.48;15.10;;;;;;;;;;5033035;28;20104;-53
2021/05/02 07:55:32;;;;;;;19.40;15.05;;;;;;;;;;5044656;28;20078;-55
2021/05/02 07:57:58;;;;;;;19.77;16.60;;;;;;;;;;5022918;28;20026;-53
2021/05/02 08:00:23;;;;;;;20.02;15.25;;;;;;;;;;5030790;28;20112;-54
2021/05/02 08:02:48;;;;;;;18.98;15.20;;;;;;;;;;5030567;28;20026;-55
2021/05/02 08:05:14;;;;;;;17.92;14.70;;;;;;;;;;5029683;28;20033;-54
2021/05/02 08:07:39;;;;;;;21.05;15.63;;;;;;;;;;5030387;28;20045;-56
2021/05/02 08:10:04;;;;;;;17.33;13.98;;;;;;;;;;5031720;28;20430;-56
2021/05/02 08:12:30;;;;;;;19.45;15.27;;;;;;;;;;5028837;28;20030;-54
2021/05/02 08:14:55;;;;;;;15.18;13.18;;;;;;;;;;5031626;28;20037;-56
2021/05/02 08:17:20;;;;;;;16.77;14.15;;;;;;;;;;5017543;28;20111;-54
2021/05/02 08:19:45;;;;;;;15.90;12.57;;;;;;;;;;5030805;28;20053;-54
2021/05/02 08:22:11;;;;;;;14.23;12.07;;;;;;;;;;5030296;28;20021;-53
2021/05/02 08:24:36;;;;;;;14.65;11.75;;;;;;;;;;5031689;28;20022;-55
2021/05/02 08:27:01;;;;;;;15.18;12.55;;;;;;;;;;5028765;28;20065;-53
2021/05/02 08:29:26;;;;;;;14.25;12.73;;;;;;;;;;5046534;28;20118;-53
2021/05/02 08:31:52;;;;;;;13.77;12.23;;;;;;;;;;5030559;28;20057;-56
2021/05/02 08:34:17;;;;;;;12.35;10.40;;;;;;;;;;5035541;28;20036;-54
2021/05/02 08:36:42;;;;;;;13.35;11.02;;;;;;;;;;5055340;28;20025;-53
2021/05/02 08:39:07;;;;;;;13.45;11.75;;;;;;;;;;5041723;28;20018;-56
2021/05/02 08:41:33;;;;;;;11.85;10.10;;;;;;;;;;5034883;28;20063;-54
2021/05/02 08:43:59;;;;;;;14.00;12.00;;;;;;;;;;5034182;28;20436;-52
2021/05/02 08:46:24;;;;;;;13.45;11.15;;;;;;;;;;5035568;28;20017;-52
2021/05/02 08:48:50;;;;;;;14.30;12.80;;;;;;;;;;5036759;28;20092;-55
2021/05/02 08:51:15;;;;;;;14.23;11.52;;;;;;;;;;5034500;28;20071;-54
2021/05/02 08:53:41;;;;;;;15.05;11.35;;;;;;;;;;5034942;28;20428;-55
2021/05/02 08:56:07;;;;;;;7.78;6.53;;;;;;;;;;5035254;28;20083;-55
2021/05/02 08:58:32;;;;;;;13.00;10.60;;;;;;;;;;5031249;28;20025;-54
2021/05/02 09:00:58;;;;;;;9.25;8.27;;;;;;;;;;5033824;28;20496;-55
2021/05/02 09:03:42;;;;;;;10.95;9.13;;;;;;;;;;5020460;28;20030;-55
2021/05/02 09:06:20;;;;;;;10.15;8.40;;;;;;;;;;5031501;28;20788;-53
2021/05/02 09:08:46;;;;;;;9.65;6.82;;;;;;;;;;5012017;28;20018;-54
2021/05/02 09:11:12;;;;;;;12.43;9.27;;;;;;;;;;5035382;28;20026;-53
2021/05/02 09:13:48;;;;;;;7.85;7.05;;;;;;;;;;5034865;28;20037;-54
2021/05/02 09:16:13;;;;;;;10.40;9.10;;;;;;;;;;5034378;28;20038;-54
2021/05/02 09:18:40;;;;;;;10.75;8.65;;;;;;;;;;5031599;28;20025;-56
2021/05/02 09:21:06;;;;;;;10.30;8.07;;;;;;;;;;5032366;28;20033;-54
2021/05/02 09:23:38;;;;;;;8.98;7.50;;;;;;;;;;5034061;28;20498;-56
2021/05/02 09:26:04;;;;;;;4.97;4.43;;;;;;;;;;5034885;28;20033;-54
2021/05/02 09:28:39;;;;;;;7.25;5.35;;;;;;;;;;5037610;28;20028;-54
2021/05/02 09:31:05;;;;;;;7.27;6.57;;;;;;;;;;5028296;28;20026;-55
2021/05/02 09:33:30;;;;;;;6.35;5.60;;;;;;;;;;5040591;28;20036;-55
2021/05/02 09:35:55;;;;;;;6.72;4.95;;;;;;;;;;5038088;28;20044;-56
2021/05/02 09:38:21;;;;;;;6.13;5.50;;;;;;;;;;5031564;28;20441;-54
2021/05/02 09:40:49;;;;;;;3.22;2.20;;;;;;;;;;5033691;28;20032;-56
2021/05/02 09:43:33;;;;;;;4.45;3.85;;;;;;;;;;5033863;28;20108;-55
2021/05/02 09:46:24;;;;;;;6.25;5.30;;;;;;;;;;5033449;28;20059;-55
2021/05/02 09:49:10;;;;;;;5.38;4.88;;;;;;;;;;5045772;28;20449;-54
2021/05/02 09:51:36;;;;;;;6.20;4.70;;;;;;;;;;5032015;28;20416;-55
2021/05/02 09:54:03;;;;;;;6.53;5.60;;;;;;;;;;5032910;28;20087;-55
2021/05/02 09:56:32;;;;;;;10.30;9.25;;;;;;;;;;5033423;28;20542;-54
2021/05/02 09:58:57;;;;;;;8.88;5.80;;;;;;;;;;5036998;28;20029;-55
2021/05/02 10:01:23;;;;;;;12.02;10.25;;;;;;;;;;5047514;28;20018;-54
2021/05/02 10:03:54;;;;;;;13.05;7.10;;;;;;;;;;5033532;28;20025;-55
2021/05/02 10:06:29;;;;;;;22.38;18.23;;;;;;;;;;5033654;28;20045;-55
2021/05/02 10:08:55;;;;;;;24.20;16.92;;;;;;;;;;5029746;28;20030;-55
2021/05/02 10:11:22;;;;;;;30.38;23.17;;;;;;;;;;5039316;28;20021;-55
2021/05/02 10:13:47;;;;;;;28.92;23.35;;;;;;;;;;5034889;28;20082;-54
2021/05/02 10:16:15;;;;;;;19.92;14.40;;;;;;;;;;5032083;28;20021;-55
2021/05/02 10:18:40;;;;;;;27.83;22.20;;;;;;;;;;5029569;28;20024;-54
2021/05/02 10:21:07;;;;;;;35.40;27.10;;;;;;;;;;5030965;28;20017;-56
2021/05/02 10:23:34;;;;;;;40.92;30.35;;;;;;;;;;5033645;28;20107;-55
2021/05/02 10:26:01;;;;;;;24.42;18.88;;;;;;;;;;5032117;28;20017;-57
2021/05/02 10:28:27;;;;;;;26.42;20.40;;;;;;;;;;5030273;28;20013;-57
2021/05/02 10:30:54;;;;;;;19.63;13.82;;;;;;;;;;5033099;28;20021;-55
2021/05/02 10:33:31;;;;;;;24.08;17.83;;;;;;;;;;5045939;28;20026;-56
2021/05/02 10:36:05;;;;;;;20.05;14.15;;;;;;;;;;5036858;28;20029;-55
2021/05/02 10:38:45;;;;;;;24.63;17.77;;;;;;;;;;5031517;28;20476;-56
2021/05/02 10:41:34;;;;;;;18.10;11.07;;;;;;;;;;5043593;28;20032;-54
2021/05/02 10:44:19;;;;;;;22.17;16.27;;;;;;;;;;5032245;28;20033;-55
2021/05/02 10:46:50;;;;;;;24.65;19.52;;;;;;;;;;5032412;28;20136;-54
2021/05/02 10:49:18;;;;;;;25.65;18.90;;;;;;;;;;5031181;28;20071;-55
2021/05/02 10:51:44;;;;;;;20.25;14.40;;;;;;;;;;5031478;28;20032;-55
2021/05/02 10:54:18;;;;;;;22.00;15.70;;;;;;;;;;5031127;28;20017;-52
2021/05/02 10:56:58;;;;;;;28.50;23.20;;;;;;;;;;5031478;28;20021;-55
2021/05/02 10:59:26;;;;;;;21.48;15.90;;;;;;;;;;5034777;28;20100;-56
2021/05/02 11:01:52;;;;;;;18.27;11.93;;;;;;;;;;5031073;28;20021;-55
2021/05/02 11:04:18;;;;;;;21.83;17.73;;;;;;;;;;5033214;28;20144;-56
2021/05/02 11:06:50;;;;;;;21.25;15.93;;;;;;;;;;5032185;28;20112;-56
2021/05/02 11:09:18;;;;;;;23.67;18.52;;;;;;;;;;5031138;28;20396;-55
2021/05/02 11:11:47;;;;;;;17.13;13.15;;;;;;;;;;5035600;28;20017;-54
2021/05/02 11:14:18;;;;;;;17.17;13.95;;;;;;;;;;5033189;28;20202;-55
2021/05/02 11:16:44;;;;;;;15.20;10.43;;;;;;;;;;5032276;28;20031;-54
2021/05/02 11:19:16;;;;;;;15.27;10.27;;;;;;;;;;5029553;28;20028;-56
2021/05/02 11:21:47;;;;;;;15.23;12.18;;;;;;;;;;5032579;28;20021;-54
2021/05/02 11:24:18;;;;;;;18.25;13.70;;;;;;;;;;5027890;28;20049;-56
2021/05/02 11:26:47;;;;;;;15.10;11.13;;;;;;;;;;5021369;28;20033;-52
2021/05/02 11:29:18;;;;;;;13.25;9.98;;;;;;;;;;5026331;28;20034;-56
2021/05/02 11:31:44;;;;;;;16.60;13.52;;;;;;;;;;5032393;28;20025;-55
2021/05/02 11:34:09;;;;;;;20.00;15.73;;;;;;;;;;5031083;28;20028;-55
2021/05/02 11:36:41;;;;;;;16.02;11.32;;;;;;;;;;5032279;28;20025;-54
2021/05/02 11:39:07;;;;;;;18.50;12.85;;;;;;;;;;5031183;28;20114;-54
2021/05/02 11:42:01;;;;;;;17.10;13.32;;;;;;;;;;5030884;28;20130;-54
2021/05/02 11:44:27;;;;;;;17.90;12.50;;;;;;;;;;5020641;28;20033;-54
2021/05/02 11:46:52;;;;;;;20.92;16.83;;;;;;;;;;5029404;28;20253;-54
2021/05/02 11:49:17;;;;;;;15.98;12.90;;;;;;;;;;5030867;28;20013;-54
2021/05/02 11:51:43;;;;;;;14.45;10.77;;;;;;;;;;5031728;28;20084;-55
2021/05/02 11:54:12;;;;;;;16.65;11.80;;;;;;;;;;5032113;28;20029;-53
2021/05/02 11:56:37;;;;;;;22.15;19.02;;;;;;;;;;5032025;28;20079;-53
2021/05/02 11:59:04;;;;;;;23.23;18.65;;;;;;;;;;5029391;28;20021;-53
2021/05/02 12:01:30;;;;;;;19.63;13.88;;;;;;;;;;5038636;28;20071;-53
2021/05/02 12:04:05;;;;;;;14.35;12.40;;;;;;;;;;5037382;28;20051;-53
2021/05/02 12:06:31;;;;;;;18.92;16.70;;;;;;;;;;5037287;28;20477;-54
2021/05/02 12:08:57;;;;;;;20.17;16.58;;;;;;;;;;5046355;28;20734;-55
2021/05/02 12:11:23;;;;;;;21.95;18.45;;;;;;;;;;5048980;28;20029;-55
2021/05/02 12:13:50;;;;;;;17.15;14.32;;;;;;;;;;5038181;28;20557;-54
2021/05/02 12:16:17;;;;;;;18.00;13.70;;;;;;;;;;5044633;28;20112;-55
2021/05/02 12:18:48;;;;;;;23.27;18.73;;;;;;;;;;5038640;28;20108;-52
2021/05/02 12:21:16;;;;;;;21.55;18.58;;;;;;;;;;5048929;28;20022;-55
2021/05/02 12:23:41;;;;;;;14.48;12.13;;;;;;;;;;5033490;28;20472;-55
2021/05/02 12:26:10;;;;;;;10.98;8.80;;;;;;;;;;5042077;28;20048;-54
2021/05/02 12:28:37;;;;;;;15.82;13.35;;;;;;;;;;5029527;28;20101;-51
2021/05/02 12:31:04;;;;;;;17.10;15.25;;;;;;;;;;5037883;28;20032;-54
2021/05/02 12:33:29;;;;;;;14.65;13.07;;;;;;;;;;5035751;28;20036;-54
2021/05/02 12:35:55;;;;;;;17.30;15.48;;;;;;;;;;5041435;28;20021;-55
2021/05/02 12:38:26;;;;;;;10.20;7.93;;;;;;;;;;5049613;28;20540;-55
2021/05/02 12:40:52;;;;;;;14.35;12.02;;;;;;;;;;5047131;28;20087;-54
2021/05/02 12:43:27;;;;;;;13.35;11.93;;;;;;;;;;5038677;28;20025;-54
2021/05/02 12:45:53;;;;;;;;;;;;;;;;;;5045126;28;20071;-53
2021/05/02 12:48:28;;;;;;;16.48;13.40;;;;;;;;;;5032133;28;19936;-54
2021/05/02 12:50:55;;;;;;;7.72;6.68;;;;;;;;;;5039014;28;20045;-55
2021/05/02 12:53:20;;;;;;;13.52;11.73;;;;;;;;;;5041566;28;20107;-53
2021/05/02 12:55:56;;;;;;;14.98;12.63;;;;;;;;;;5043146;28;20591;-55
2021/05/02 12:58:38;;;;;;;15.50;12.05;;;;;;;;;;5033708;28;20033;-51
2021/05/02 13:01:10;;;;;;;14.48;13.05;;;;;;;;;;5054883;28;20033;-53
2021/05/02 13:03:40;;;;;;;13.20;11.13;;;;;;;;;;5033660;28;20459;-53
2021/05/02 13:06:14;;;;;;;14.07;11.88;;;;;;;;;;5033520;28;20163;-52
2021/05/02 13:08:51;;;;;;;13.15;10.23;;;;;;;;;;5031813;28;20109;-53
2021/05/02 13:11:25;;;;;;;12.23;8.20;;;;;;;;;;5037929;28;20074;-54
2021/05/02 13:14:09;;;;;;;14.93;12.88;;;;;;;;;;5034703;28;20439;-53
2021/05/02 13:16:45;;;;;;;12.32;10.75;;;;;;;;;;5034608;28;20072;-53
2021/05/02 13:19:47;;;;;;;14.80;12.93;;;;;;;;;;5032244;28;20025;-52
2021/05/02 13:22:13;;;;;;;16.63;14.20;;;;;;;;;;5027343;28;20485;-51
2021/05/02 13:24:58;;;;;;;16.90;15.10;;;;;;;;;;5034477;28;20083;-53
2021/05/02 13:27:32;;;;;;;14.52;10.60;;;;;;;;;;5032547;28;20025;-54
2021/05/02 13:29:57;;;;;;;18.10;15.45;;;;;;;;;;5034189;28;20022;-52
2021/05/02 13:32:23;;;;;;;16.65;13.95;;;;;;;;;;5035404;28;20755;-53
2021/05/02 13:34:48;;;;;;;12.32;10.45;;;;;;;;;;5033407;28;20535;-51
2021/05/02 13:37:13;;;;;;;15.70;14.02;;;;;;;;;;5030974;28;20520;-54
2021/05/02 13:39:38;;;;;;;13.95;12.38;;;;;;;;;;5032615;28;20029;-51
2021/05/02 13:42:05;;;;;;;14.27;12.77;;;;;;;;;;5041518;28;20033;-53
2021/05/02 13:44:30;;;;;;;13.68;11.90;;;;;;;;;;5033248;28;20021;-48
2021/05/02 13:46:56;;;;;;;8.23;6.40;;;;;;;;;;5032649;28;20068;-52
2021/05/02 13:49:21;;;;;;;11.45;10.25;;;;;;;;;;5034642;28;20476;-52
2021/05/02 13:51:49;;;;;;;9.75;8.02;;;;;;;;;;5037483;28;20458;-52
2021/05/02 13:54:14;;;;;;;11.32;9.38;;;;;;;;;;5033999;28;20018;-53
2021/05/02 13:56:40;;;;;;;8.63;7.60;;;;;;;;;;5034324;28;20021;-50
2021/05/02 13:59:05;;;;;;;10.57;9.48;;;;;;;;;;5028074;28;20021;-51
2021/05/02 14:01:31;;;;;;;12.13;9.82;;;;;;;;;;5030500;28;20067;-51
2021/05/02 14:03:58;;;;;;;13.82;11.32;;;;;;;;;;5025785;28;20025;-55
2021/05/02 14:06:24;;;;;;;13.45;12.05;;;;;;;;;;5027322;28;20045;-54
2021/05/02 14:08:50;;;;;;;10.07;9.07;;;;;;;;;;5022493;28;20078;-55
2021/05/02 14:11:16;;;;;;;8.02;5.65;;;;;;;;;;5026794;28;20026;-54
2021/05/02 14:13:41;;;;;;;10.70;8.75;;;;;;;;;;5026156;28;20515;-49
2021/05/02 14:16:06;;;;;;;7.85;6.40;;;;;;;;;;5025466;28;20550;-49
2021/05/02 14:18:32;;;;;;;12.57;10.30;;;;;;;;;;5022254;28;20850;-52
2021/05/02 14:20:57;;;;;;;7.15;5.57;;;;;;;;;;5025930;28;20029;-54
2021/05/02 14:23:22;;;;;;;9.65;8.57;;;;;;;;;;5024970;28;20021;-52